sensor_id;sensor_type;location;lat;lon;timestamp;P1;durP1;ratioP1;P2;durP2;ratioP2
67274;SDS011;55463;52.324;5.122;2023-04-15T00:00:36;10.02;;;4.82;;
67274;SDS011;55463;52.324;5.122;2023-04-15T00:03:01;12.73;;;5.20;;
67274;SDS011;55463;52.324;5.122;2023-04-15T00:05:30;8.00;;;4.82;;
67274;SDS011;55463;52.324;5.122;2023-04-15T00:07:56;8.70;;;4.85;;
67274;SDS011;55463;52.324;5.122;2023-04-15T00:10:24;10.50;;;4.38;;
67274;SDS011;55463;52.324;5.122;2023-04-15T00:12:50;12.00;;;4.93;;
67274;SDS011;55463;52.324;5.122;2023-04-15T00:15:16;7.97;;;4.85;;
67274;SDS011;55463;52.324;5.122;2023-04-15T00:17:41;10.50;;;4.43;;
67274;SDS011;55463;52.324;5.122;2023-04-15T00:20:07;10.07;;;4.80;;
67274;SDS011;55463;52.324;5.122;2023-04-15T00:22:32;8.63;;;4.55;;
67274;SDS011;55463;52.324;5.122;2023-04-15T00:24:58;12.88;;;5.60;;
67274;SDS011;55463;52.324;5.122;2023-04-15T00:27:23;7.85;;;4.50;;
67274;SDS011;55463;52.324;5.122;2023-04-15T00:29:48;12.57;;;4.60;;
67274;SDS011;55463;52.324;5.122;2023-04-15T00:32:14;8.18;;;4.38;;
67274;SDS011;55463;52.324;5.122;2023-04-15T00:34:39;8.25;;;4.28;;
67274;SDS011;55463;52.324;5.122;2023-04-15T00:37:05;8.43;;;4.50;;
67274;SDS011;55463;52.324;5.122;2023-04-15T00:39:30;10.40;;;4.70;;
67274;SDS011;55463;52.324;5.122;2023-04-15T00:41:56;8.70;;;4.50;;
67274;SDS011;55463;52.324;5.122;2023-04-15T00:44:22;10.55;;;4.75;;
67274;SDS011;55463;52.324;5.122;2023-04-15T00:46:47;11.75;;;5.07;;
67274;SDS011;55463;52.324;5.122;2023-04-15T00:49:15;9.00;;;4.57;;
67274;SDS011;55463;52.324;5.122;2023-04-15T00:51:42;9.35;;;4.45;;
67274;SDS011;55463;52.324;5.122;2023-04-15T00:54:08;9.27;;;4.95;;
67274;SDS011;55463;52.324;5.122;2023-04-15T00:56:34;9.23;;;4.60;;
67274;SDS011;55463;52.324;5.122;2023-04-15T00:59:02;7.53;;;4.00;;
67274;SDS011;55463;52.324;5.122;2023-04-15T01:01:27;10.10;;;4.30;;
67274;SDS011;55463;52.324;5.122;2023-04-15T01:03:54;8.38;;;4.35;;
67274;SDS011;55463;52.324;5.122;2023-04-15T01:06:22;5.57;;;3.75;;
67274;SDS011;55463;52.324;5.122;2023-04-15T01:08:47;7.15;;;4.07;;
67274;SDS011;55463;52.324;5.122;2023-04-15T01:11:13;7.95;;;4.75;;
67274;SDS011;55463;52.324;5.122;2023-04-15T01:13:39;11.18;;;4.57;;
67274;SDS011;55463;52.324;5.122;2023-04-15T01:16:05;12.07;;;4.65;;
67274;SDS011;55463;52.324;5.122;2023-04-15T01:18:32;7.30;;;4.68;;
67274;SDS011;55463;52.324;5.122;2023-04-15T01:20:59;12.25;;;4.70;;
67274;SDS011;55463;52.324;5.122;2023-04-15T01:23:26;7.75;;;4.07;;
67274;SDS011;55463;52.324;5.122;2023-04-15T01:25:52;9.25;;;4.32;;
67274;SDS011;55463;52.324;5.122;2023-04-15T01:28:17;12.32;;;4.68;;
67274;SDS011;55463;52.324;5.122;2023-04-15T01:30:44;6.22;;;4.35;;
67274;SDS011;55463;52.324;5.122;2023-04-15T01:33:09;8.07;;;4.47;;
67274;SDS011;55463;52.324;5.122;2023-04-15T01:35:35;8.10;;;4.93;;
67274;SDS011;55463;52.324;5.122;2023-04-15T01:38:04;12.85;;;4.53;;
67274;SDS011;55463;52.324;5.122;2023-04-15T01:40:35;7.35;;;4.50;;
67274;SDS011;55463;52.324;5.122;2023-04-15T01:43:01;9.88;;;4.53;;
67274;SDS011;55463;52.324;5.122;2023-04-15T01:45:27;8.85;;;4.78;;
67274;SDS011;55463;52.324;5.122;2023-04-15T01:47:52;8.57;;;4.72;;
67274;SDS011;55463;52.324;5.122;2023-04-15T01:50:18;7.05;;;4.82;;
67274;SDS011;55463;52.324;5.122;2023-04-15T01:52:44;10.32;;;4.93;;
67274;SDS011;55463;52.324;5.122;2023-04-15T01:55:11;14.10;;;4.68;;
67274;SDS011;55463;52.324;5.122;2023-04-15T01:57:36;8.50;;;4.45;;
67274;SDS011;55463;52.324;5.122;2023-04-15T02:00:02;9.48;;;4.93;;
67274;SDS011;55463;52.324;5.122;2023-04-15T02:02:27;7.80;;;4.30;;
67274;SDS011;55463;52.324;5.122;2023-04-15T02:04:53;8.15;;;4.40;;
67274;SDS011;55463;52.324;5.122;2023-04-15T02:07:18;9.73;;;4.50;;
67274;SDS011;55463;52.324;5.122;2023-04-15T02:09:44;10.07;;;4.97;;
67274;SDS011;55463;52.324;5.122;2023-04-15T02:12:10;9.77;;;4.80;;
67274;SDS011;55463;52.324;5.122;2023-04-15T02:14:35;8.60;;;4.70;;
67274;SDS011;55463;52.324;5.122;2023-04-15T02:17:01;8.63;;;5.10;;
67274;SDS011;55463;52.324;5.122;2023-04-15T02:19:31;8.80;;;4.53;;
67274;SDS011;55463;52.324;5.122;2023-04-15T02:21:57;9.85;;;4.93;;
67274;SDS011;55463;52.324;5.122;2023-04-15T02:24:23;6.68;;;5.00;;
67274;SDS011;55463;52.324;5.122;2023-04-15T02:26:49;8.60;;;4.88;;
67274;SDS011;55463;52.324;5.122;2023-04-15T02:29:14;9.25;;;4.97;;
67274;SDS011;55463;52.324;5.122;2023-04-15T02:31:40;8.20;;;4.63;;
67274;SDS011;55463;52.324;5.122;2023-04-15T02:34:06;10.23;;;5.50;;
67274;SDS011;55463;52.324;5.122;2023-04-15T02:36:32;13.30;;;5.28;;
67274;SDS011;55463;52.324;5.122;2023-04-15T02:38:58;9.85;;;5.10;;
67274;SDS011;55463;52.324;5.122;2023-04-15T02:41:24;11.75;;;5.03;;
67274;SDS011;55463;52.324;5.122;2023-04-15T02:43:52;8.75;;;5.03;;
67274;SDS011;55463;52.324;5.122;2023-04-15T02:46:18;10.43;;;4.47;;
67274;SDS011;55463;52.324;5.122;2023-04-15T02:48:43;9.13;;;4.97;;
67274;SDS011;55463;52.324;5.122;2023-04-15T02:51:12;10.35;;;5.22;;
67274;SDS011;55463;52.324;5.122;2023-04-15T02:53:42;13.13;;;5.50;;
67274;SDS011;55463;52.324;5.122;2023-04-15T02:56:07;7.75;;;4.90;;
67274;SDS011;55463;52.324;5.122;2023-04-15T02:58:34;10.02;;;5.38;;
67274;SDS011;55463;52.324;5.122;2023-04-15T03:00:59;10.45;;;5.18;;
67274;SDS011;55463;52.324;5.122;2023-04-15T03:03:25;8.85;;;4.78;;
67274;SDS011;55463;52.324;5.122;2023-04-15T03:05:52;10.07;;;5.40;;
67274;SDS011;55463;52.324;5.122;2023-04-15T03:08:17;8.57;;;5.20;;
67274;SDS011;55463;52.324;5.122;2023-04-15T03:10:42;6.80;;;4.85;;
67274;SDS011;55463;52.324;5.122;2023-04-15T03:13:08;9.90;;;5.10;;
67274;SDS011;55463;52.324;5.122;2023-04-15T03:15:33;9.35;;;5.57;;
67274;SDS011;55463;52.324;5.122;2023-04-15T03:17:58;9.18;;;5.63;;
67274;SDS011;55463;52.324;5.122;2023-04-15T03:20:24;7.57;;;4.97;;
67274;SDS011;55463;52.324;5.122;2023-04-15T03:22:49;9.95;;;5.55;;
67274;SDS011;55463;52.324;5.122;2023-04-15T03:25:15;8.27;;;5.38;;
67274;SDS011;55463;52.324;5.122;2023-04-15T03:27:40;10.88;;;5.78;;
67274;SDS011;55463;52.324;5.122;2023-04-15T03:30:06;8.80;;;5.68;;
67274;SDS011;55463;52.324;5.122;2023-04-15T03:32:32;7.95;;;5.32;;
67274;SDS011;55463;52.324;5.122;2023-04-15T03:34:58;11.38;;;5.50;;
67274;SDS011;55463;52.324;5.122;2023-04-15T03:37:23;11.18;;;5.72;;
67274;SDS011;55463;52.324;5.122;2023-04-15T03:39:49;9.82;;;5.72;;
67274;SDS011;55463;52.324;5.122;2023-04-15T03:42:15;8.75;;;5.57;;
67274;SDS011;55463;52.324;5.122;2023-04-15T03:44:40;8.38;;;5.40;;
67274;SDS011;55463;52.324;5.122;2023-04-15T03:47:06;9.32;;;5.38;;
67274;SDS011;55463;52.324;5.122;2023-04-15T03:49:31;11.25;;;6.03;;
67274;SDS011;55463;52.324;5.122;2023-04-15T03:51:57;14.05;;;6.25;;
67274;SDS011;55463;52.324;5.122;2023-04-15T03:54:23;12.80;;;5.95;;
67274;SDS011;55463;52.324;5.122;2023-04-15T03:56:48;8.07;;;5.50;;
67274;SDS011;55463;52.324;5.122;2023-04-15T03:59:14;9.25;;;5.15;;
67274;SDS011;55463;52.324;5.122;2023-04-15T04:01:39;9.40;;;6.35;;
67274;SDS011;55463;52.324;5.122;2023-04-15T04:04:05;10.35;;;5.45;;
67274;SDS011;55463;52.324;5.122;2023-04-15T04:06:30;9.38;;;6.18;;
67274;SDS011;55463;52.324;5.122;2023-04-15T04:08:56;8.75;;;5.40;;
67274;SDS011;55463;52.324;5.122;2023-04-15T04:11:21;11.20;;;5.68;;
67274;SDS011;55463;52.324;5.122;2023-04-15T04:13:47;11.10;;;5.88;;
67274;SDS011;55463;52.324;5.122;2023-04-15T04:16:12;10.45;;;6.03;;
67274;SDS011;55463;52.324;5.122;2023-04-15T04:18:37;11.20;;;6.28;;
67274;SDS011;55463;52.324;5.122;2023-04-15T04:21:03;13.88;;;6.20;;
67274;SDS011;55463;52.324;5.122;2023-04-15T04:23:28;12.52;;;6.47;;
67274;SDS011;55463;52.324;5.122;2023-04-15T04:25:54;12.10;;;6.22;;
67274;SDS011;55463;52.324;5.122;2023-04-15T04:28:19;8.20;;;6.25;;
67274;SDS011;55463;52.324;5.122;2023-04-15T04:30:44;10.40;;;6.32;;
67274;SDS011;55463;52.324;5.122;2023-04-15T04:33:10;9.15;;;5.80;;
67274;SDS011;55463;52.324;5.122;2023-04-15T04:35:35;10.82;;;6.22;;
67274;SDS011;55463;52.324;5.122;2023-04-15T04:38:02;9.65;;;6.28;;
67274;SDS011;55463;52.324;5.122;2023-04-15T04:40:28;10.13;;;6.40;;
67274;SDS011;55463;52.324;5.122;2023-04-15T04:42:53;11.13;;;6.97;;
67274;SDS011;55463;52.324;5.122;2023-04-15T04:45:18;14.32;;;7.03;;
67274;SDS011;55463;52.324;5.122;2023-04-15T04:47:44;10.68;;;7.03;;
67274;SDS011;55463;52.324;5.122;2023-04-15T04:50:11;10.18;;;6.68;;
67274;SDS011;55463;52.324;5.122;2023-04-15T04:52:37;10.98;;;6.65;;
67274;SDS011;55463;52.324;5.122;2023-04-15T04:55:02;10.68;;;6.07;;
67274;SDS011;55463;52.324;5.122;2023-04-15T04:57:28;13.50;;;6.65;;
67274;SDS011;55463;52.324;5.122;2023-04-15T04:59:53;11.55;;;7.10;;
67274;SDS011;55463;52.324;5.122;2023-04-15T05:02:19;14.48;;;7.38;;
67274;SDS011;55463;52.324;5.122;2023-04-15T05:04:44;9.77;;;6.40;;
67274;SDS011;55463;52.324;5.122;2023-04-15T05:07:09;16.10;;;7.30;;
67274;SDS011;55463;52.324;5.122;2023-04-15T05:09:35;11.20;;;7.18;;
67274;SDS011;55463;52.324;5.122;2023-04-15T05:12:01;11.55;;;7.40;;
67274;SDS011;55463;52.324;5.122;2023-04-15T05:14:28;13.05;;;6.95;;
67274;SDS011;55463;52.324;5.122;2023-04-15T05:16:53;15.65;;;7.55;;
67274;SDS011;55463;52.324;5.122;2023-04-15T05:19:18;11.00;;;7.60;;
67274;SDS011;55463;52.324;5.122;2023-04-15T05:21:44;12.50;;;7.88;;
67274;SDS011;55463;52.324;5.122;2023-04-15T05:24:09;13.07;;;7.80;;
67274;SDS011;55463;52.324;5.122;2023-04-15T05:26:34;12.10;;;7.55;;
67274;SDS011;55463;52.324;5.122;2023-04-15T05:29:00;16.80;;;7.50;;
67274;SDS011;55463;52.324;5.122;2023-04-15T05:31:25;10.18;;;7.57;;
67274;SDS011;55463;52.324;5.122;2023-04-15T05:33:50;10.07;;;6.95;;
67274;SDS011;55463;52.324;5.122;2023-04-15T05:36:16;12.95;;;8.00;;
67274;SDS011;55463;52.324;5.122;2023-04-15T05:38:41;10.85;;;8.30;;
67274;SDS011;55463;52.324;5.122;2023-04-15T05:41:07;11.35;;;8.27;;
67274;SDS011;55463;52.324;5.122;2023-04-15T05:43:32;11.82;;;8.23;;
67274;SDS011;55463;52.324;5.122;2023-04-15T05:45:58;14.45;;;8.38;;
67274;SDS011;55463;52.324;5.122;2023-04-15T05:48:23;14.70;;;8.75;;
67274;SDS011;55463;52.324;5.122;2023-04-15T05:50:48;11.20;;;8.00;;
67274;SDS011;55463;52.324;5.122;2023-04-15T05:53:14;12.02;;;8.10;;
67274;SDS011;55463;52.324;5.122;2023-04-15T05:55:40;12.48;;;8.80;;
67274;SDS011;55463;52.324;5.122;2023-04-15T05:58:05;13.10;;;8.55;;
67274;SDS011;55463;52.324;5.122;2023-04-15T06:00:31;12.50;;;8.63;;
67274;SDS011;55463;52.324;5.122;2023-04-15T06:02:56;15.38;;;8.60;;
67274;SDS011;55463;52.324;5.122;2023-04-15T06:05:23;12.38;;;8.80;;
67274;SDS011;55463;52.324;5.122;2023-04-15T06:07:48;17.02;;;8.77;;
67274;SDS011;55463;52.324;5.122;2023-04-15T06:10:14;12.73;;;9.70;;
67274;SDS011;55463;52.324;5.122;2023-04-15T06:12:39;11.50;;;8.52;;
67274;SDS011;55463;52.324;5.122;2023-04-15T06:15:05;13.02;;;9.35;;
67274;SDS011;55463;52.324;5.122;2023-04-15T06:17:31;14.43;;;9.48;;
67274;SDS011;55463;52.324;5.122;2023-04-15T06:19:56;16.48;;;9.07;;
67274;SDS011;55463;52.324;5.122;2023-04-15T06:22:22;14.43;;;9.48;;
67274;SDS011;55463;52.324;5.122;2023-04-15T06:24:48;14.77;;;9.82;;
67274;SDS011;55463;52.324;5.122;2023-04-15T06:27:17;13.85;;;9.43;;
67274;SDS011;55463;52.324;5.122;2023-04-15T06:29:43;13.77;;;9.85;;
67274;SDS011;55463;52.324;5.122;2023-04-15T06:32:08;15.98;;;9.48;;
67274;SDS011;55463;52.324;5.122;2023-04-15T06:34:34;16.98;;;9.45;;
67274;SDS011;55463;52.324;5.122;2023-04-15T06:37:00;16.77;;;10.18;;
67274;SDS011;55463;52.324;5.122;2023-04-15T06:39:28;17.83;;;9.60;;
67274;SDS011;55463;52.324;5.122;2023-04-15T06:41:53;15.93;;;9.27;;
67274;SDS011;55463;52.324;5.122;2023-04-15T06:44:19;16.42;;;9.88;;
67274;SDS011;55463;52.324;5.122;2023-04-15T06:46:44;13.27;;;9.45;;
67274;SDS011;55463;52.324;5.122;2023-04-15T06:49:10;14.75;;;9.48;;
67274;SDS011;55463;52.324;5.122;2023-04-15T06:51:35;14.73;;;9.48;;
67274;SDS011;55463;52.324;5.122;2023-04-15T06:54:01;12.93;;;9.68;;
67274;SDS011;55463;52.324;5.122;2023-04-15T06:56:29;16.10;;;9.57;;
67274;SDS011;55463;52.324;5.122;2023-04-15T06:58:55;17.58;;;10.00;;
67274;SDS011;55463;52.324;5.122;2023-04-15T07:01:21;14.43;;;9.30;;
67274;SDS011;55463;52.324;5.122;2023-04-15T07:03:47;13.25;;;8.63;;
67274;SDS011;55463;52.324;5.122;2023-04-15T07:06:12;11.93;;;9.15;;
67274;SDS011;55463;52.324;5.122;2023-04-15T07:08:38;11.60;;;8.68;;
67274;SDS011;55463;52.324;5.122;2023-04-15T07:11:03;12.68;;;8.27;;
67274;SDS011;55463;52.324;5.122;2023-04-15T07:13:30;12.48;;;7.70;;
67274;SDS011;55463;52.324;5.122;2023-04-15T07:15:56;10.43;;;7.55;;
67274;SDS011;55463;52.324;5.122;2023-04-15T07:18:21;12.80;;;7.47;;
67274;SDS011;55463;52.324;5.122;2023-04-15T07:20:47;11.07;;;8.40;;
67274;SDS011;55463;52.324;5.122;2023-04-15T07:23:12;11.85;;;7.30;;
67274;SDS011;55463;52.324;5.122;2023-04-15T07:25:38;11.60;;;7.75;;
67274;SDS011;55463;52.324;5.122;2023-04-15T07:28:03;11.82;;;7.22;;
67274;SDS011;55463;52.324;5.122;2023-04-15T07:30:28;12.93;;;6.80;;
67274;SDS011;55463;52.324;5.122;2023-04-15T07:32:54;10.45;;;5.53;;
67274;SDS011;55463;52.324;5.122;2023-04-15T07:35:20;9.52;;;6.40;;
67274;SDS011;55463;52.324;5.122;2023-04-15T07:37:45;6.65;;;5.15;;
67274;SDS011;55463;52.324;5.122;2023-04-15T07:40:11;8.95;;;5.97;;
67274;SDS011;55463;52.324;5.122;2023-04-15T07:42:38;8.00;;;5.40;;
67274;SDS011;55463;52.324;5.122;2023-04-15T07:45:04;9.77;;;5.63;;
67274;SDS011;55463;52.324;5.122;2023-04-15T07:47:30;9.57;;;5.35;;
67274;SDS011;55463;52.324;5.122;2023-04-15T07:49:56;6.13;;;4.72;;
67274;SDS011;55463;52.324;5.122;2023-04-15T07:52:21;6.63;;;4.93;;
67274;SDS011;55463;52.324;5.122;2023-04-15T07:54:47;6.18;;;4.90;;
67274;SDS011;55463;52.324;5.122;2023-04-15T07:57:12;6.15;;;4.93;;
67274;SDS011;55463;52.324;5.122;2023-04-15T07:59:37;7.38;;;5.15;;
67274;SDS011;55463;52.324;5.122;2023-04-15T08:02:03;6.90;;;5.20;;
67274;SDS011;55463;52.324;5.122;2023-04-15T08:04:28;8.32;;;5.10;;
67274;SDS011;55463;52.324;5.122;2023-04-15T08:06:53;6.72;;;4.68;;
67274;SDS011;55463;52.324;5.122;2023-04-15T08:09:19;7.57;;;4.55;;
67274;SDS011;55463;52.324;5.122;2023-04-15T08:11:47;7.40;;;4.10;;
67274;SDS011;55463;52.324;5.122;2023-04-15T08:14:13;5.53;;;4.38;;
67274;SDS011;55463;52.324;5.122;2023-04-15T08:16:38;7.55;;;4.20;;
67274;SDS011;55463;52.324;5.122;2023-04-15T08:19:04;6.13;;;4.45;;
67274;SDS011;55463;52.324;5.122;2023-04-15T08:21:30;5.30;;;4.10;;
67274;SDS011;55463;52.324;5.122;2023-04-15T08:23:55;7.28;;;4.40;;
67274;SDS011;55463;52.324;5.122;2023-04-15T08:26:21;8.38;;;5.10;;
67274;SDS011;55463;52.324;5.122;2023-04-15T08:28:47;8.07;;;4.85;;
67274;SDS011;55463;52.324;5.122;2023-04-15T08:31:13;7.18;;;4.35;;
67274;SDS011;55463;52.324;5.122;2023-04-15T08:33:40;8.80;;;4.53;;
67274;SDS011;55463;52.324;5.122;2023-04-15T08:36:05;6.38;;;4.50;;
67274;SDS011;55463;52.324;5.122;2023-04-15T08:38:31;9.75;;;4.93;;
67274;SDS011;55463;52.324;5.122;2023-04-15T08:40:57;7.72;;;4.30;;
67274;SDS011;55463;52.324;5.122;2023-04-15T08:43:27;6.70;;;4.35;;
67274;SDS011;55463;52.324;5.122;2023-04-15T08:45:54;6.25;;;4.65;;
67274;SDS011;55463;52.324;5.122;2023-04-15T08:48:20;5.97;;;4.35;;
67274;SDS011;55463;52.324;5.122;2023-04-15T08:50:47;7.03;;;4.10;;
67274;SDS011;55463;52.324;5.122;2023-04-15T08:53:13;6.07;;;3.88;;
67274;SDS011;55463;52.324;5.122;2023-04-15T08:55:43;4.90;;;3.40;;
67274;SDS011;55463;52.324;5.122;2023-04-15T08:58:10;6.88;;;3.15;;
67274;SDS011;55463;52.324;5.122;2023-04-15T09:00:36;3.88;;;3.20;;
67274;SDS011;55463;52.324;5.122;2023-04-15T09:03:05;5.00;;;3.42;;
67274;SDS011;55463;52.324;5.122;2023-04-15T09:05:32;5.85;;;3.20;;
67274;SDS011;55463;52.324;5.122;2023-04-15T09:07:59;4.85;;;2.90;;
67274;SDS011;55463;52.324;5.122;2023-04-15T09:10:25;5.85;;;3.17;;
67274;SDS011;55463;52.324;5.122;2023-04-15T09:12:51;2.88;;;2.67;;
67274;SDS011;55463;52.324;5.122;2023-04-15T09:15:17;4.32;;;3.30;;
67274;SDS011;55463;52.324;5.122;2023-04-15T09:17:43;3.63;;;3.20;;
67274;SDS011;55463;52.324;5.122;2023-04-15T09:20:09;4.32;;;3.47;;
67274;SDS011;55463;52.324;5.122;2023-04-15T09:22:37;3.58;;;3.00;;
67274;SDS011;55463;52.324;5.122;2023-04-15T09:25:03;4.53;;;3.42;;
67274;SDS011;55463;52.324;5.122;2023-04-15T09:27:51;4.38;;;3.30;;
67274;SDS011;55463;52.324;5.122;2023-04-15T09:30:18;5.25;;;4.20;;
67274;SDS011;55463;52.324;5.122;2023-04-15T09:33:02;5.88;;;4.20;;
67274;SDS011;55463;52.324;5.122;2023-04-15T09:35:32;5.55;;;4.13;;
67274;SDS011;55463;52.324;5.122;2023-04-15T09:38:04;7.20;;;4.05;;
67274;SDS011;55463;52.324;5.122;2023-04-15T09:40:35;5.55;;;3.92;;
67274;SDS011;55463;52.324;5.122;2023-04-15T09:43:02;6.47;;;4.93;;
67274;SDS011;55463;52.324;5.122;2023-04-15T09:45:29;7.35;;;4.43;;
67274;SDS011;55463;52.324;5.122;2023-04-15T09:47:58;7.30;;;4.43;;
67274;SDS011;55463;52.324;5.122;2023-04-15T09:50:39;5.45;;;4.07;;
67274;SDS011;55463;52.324;5.122;2023-04-15T09:53:05;5.95;;;3.97;;
67274;SDS011;55463;52.324;5.122;2023-04-15T09:55:33;5.18;;;3.95;;
67274;SDS011;55463;52.324;5.122;2023-04-15T09:57:59;5.22;;;4.32;;
67274;SDS011;55463;52.324;5.122;2023-04-15T10:00:24;6.57;;;4.65;;
67274;SDS011;55463;52.324;5.122;2023-04-15T10:02:50;7.18;;;4.80;;
67274;SDS011;55463;52.324;5.122;2023-04-15T10:05:16;6.85;;;4.65;;
67274;SDS011;55463;52.324;5.122;2023-04-15T10:07:42;6.78;;;5.15;;
67274;SDS011;55463;52.324;5.122;2023-04-15T10:10:07;7.47;;;5.28;;
67274;SDS011;55463;52.324;5.122;2023-04-15T10:12:33;7.03;;;5.00;;
67274;SDS011;55463;52.324;5.122;2023-04-15T10:15:04;7.85;;;5.47;;
67274;SDS011;55463;52.324;5.122;2023-04-15T10:17:31;8.40;;;5.53;;
67274;SDS011;55463;52.324;5.122;2023-04-15T10:20:02;8.43;;;5.18;;
67274;SDS011;55463;52.324;5.122;2023-04-15T10:22:29;7.40;;;5.13;;
67274;SDS011;55463;52.324;5.122;2023-04-15T10:24:55;7.95;;;5.68;;
67274;SDS011;55463;52.324;5.122;2023-04-15T10:27:21;9.48;;;5.43;;
67274;SDS011;55463;52.324;5.122;2023-04-15T10:29:48;6.15;;;5.22;;
67274;SDS011;55463;52.324;5.122;2023-04-15T10:32:14;8.10;;;5.50;;
67274;SDS011;55463;52.324;5.122;2023-04-15T10:34:42;8.60;;;5.30;;
67274;SDS011;55463;52.324;5.122;2023-04-15T10:37:09;6.30;;;5.38;;
67274;SDS011;55463;52.324;5.122;2023-04-15T10:42:10;6.70;;;5.13;;
67274;SDS011;55463;52.324;5.122;2023-04-15T10:44:37;7.53;;;5.03;;
67274;SDS011;55463;52.324;5.122;2023-04-15T10:47:09;7.57;;;5.03;;
67274;SDS011;55463;52.324;5.122;2023-04-15T10:52:07;7.05;;;4.20;;
67274;SDS011;55463;52.324;5.122;2023-04-15T10:54:32;6.68;;;4.75;;
67274;SDS011;55463;52.324;5.122;2023-04-15T10:59:28;7.18;;;4.13;;
67274;SDS011;55463;52.324;5.122;2023-04-15T11:02:00;4.80;;;3.42;;
67274;SDS011;55463;52.324;5.122;2023-04-15T11:12:42;4.18;;;3.30;;
67274;SDS011;55463;52.324;5.122;2023-04-15T11:15:26;7.60;;;3.10;;
67274;SDS011;55463;52.324;5.122;2023-04-15T11:17:51;4.53;;;2.80;;
67274;SDS011;55463;52.324;5.122;2023-04-15T11:20:17;5.28;;;3.00;;
67274;SDS011;55463;52.324;5.122;2023-04-15T11:22:46;4.28;;;2.55;;
67274;SDS011;55463;52.324;5.122;2023-04-15T11:25:28;5.13;;;2.85;;
67274;SDS011;55463;52.324;5.122;2023-04-15T11:27:59;5.60;;;3.08;;
67274;SDS011;55463;52.324;5.122;2023-04-15T11:30:27;3.83;;;2.85;;
67274;SDS011;55463;52.324;5.122;2023-04-15T11:32:56;3.63;;;2.58;;
67274;SDS011;55463;52.324;5.122;2023-04-15T11:35:22;3.42;;;2.85;;
67274;SDS011;55463;52.324;5.122;2023-04-15T11:37:48;4.38;;;2.90;;
67274;SDS011;55463;52.324;5.122;2023-04-15T11:40:14;4.80;;;3.10;;
67274;SDS011;55463;52.324;5.122;2023-04-15T11:42:41;4.13;;;2.80;;
67274;SDS011;55463;52.324;5.122;2023-04-15T11:45:11;4.93;;;2.90;;
67274;SDS011;55463;52.324;5.122;2023-04-15T11:47:38;6.28;;;3.13;;
67274;SDS011;55463;52.324;5.122;2023-04-15T11:50:15;5.22;;;3.38;;
67274;SDS011;55463;52.324;5.122;2023-04-15T11:52:41;5.90;;;3.30;;
67274;SDS011;55463;52.324;5.122;2023-04-15T11:55:16;4.60;;;3.25;;
67274;SDS011;55463;52.324;5.122;2023-04-15T11:57:42;4.35;;;3.30;;
67274;SDS011;55463;52.324;5.122;2023-04-15T12:00:07;5.88;;;3.25;;
67274;SDS011;55463;52.324;5.122;2023-04-15T12:02:35;7.32;;;3.42;;
67274;SDS011;55463;52.324;5.122;2023-04-15T12:05:05;5.47;;;3.20;;
67274;SDS011;55463;52.324;5.122;2023-04-15T12:07:31;4.68;;;3.30;;
67274;SDS011;55463;52.324;5.122;2023-04-15T12:09:57;6.43;;;3.15;;
67274;SDS011;55463;52.324;5.122;2023-04-15T12:12:26;4.88;;;3.33;;
67274;SDS011;55463;52.324;5.122;2023-04-15T12:14:52;4.53;;;3.57;;
67274;SDS011;55463;52.324;5.122;2023-04-15T12:17:18;4.72;;;2.75;;
67274;SDS011;55463;52.324;5.122;2023-04-15T12:19:43;5.72;;;3.17;;
67274;SDS011;55463;52.324;5.122;2023-04-15T12:22:13;5.88;;;3.08;;
67274;SDS011;55463;52.324;5.122;2023-04-15T12:24:41;5.45;;;3.10;;
67274;SDS011;55463;52.324;5.122;2023-04-15T12:27:16;3.75;;;2.40;;
67274;SDS011;55463;52.324;5.122;2023-04-15T12:29:41;2.88;;;2.20;;
67274;SDS011;55463;52.324;5.122;2023-04-15T12:32:08;3.42;;;2.40;;
67274;SDS011;55463;52.324;5.122;2023-04-15T12:34:41;3.78;;;2.50;;
67274;SDS011;55463;52.324;5.122;2023-04-15T12:37:09;3.58;;;2.05;;
67274;SDS011;55463;52.324;5.122;2023-04-15T12:39:38;3.38;;;2.20;;
67274;SDS011;55463;52.324;5.122;2023-04-15T12:42:06;3.28;;;2.30;;
67274;SDS011;55463;52.324;5.122;2023-04-15T12:44:36;3.10;;;2.03;;
67274;SDS011;55463;52.324;5.122;2023-04-15T12:47:02;6.18;;;2.30;;
67274;SDS011;55463;52.324;5.122;2023-04-15T12:49:27;4.22;;;2.40;;
67274;SDS011;55463;52.324;5.122;2023-04-15T12:51:57;3.78;;;2.05;;
67274;SDS011;55463;52.324;5.122;2023-04-15T12:54:24;3.50;;;2.10;;
67274;SDS011;55463;52.324;5.122;2023-04-15T12:56:50;4.18;;;2.45;;
67274;SDS011;55463;52.324;5.122;2023-04-15T12:59:16;3.63;;;1.90;;
67274;SDS011;55463;52.324;5.122;2023-04-15T13:01:42;3.03;;;1.90;;
67274;SDS011;55463;52.324;5.122;2023-04-15T13:04:08;4.30;;;1.98;;
67274;SDS011;55463;52.324;5.122;2023-04-15T13:06:33;3.55;;;2.08;;
67274;SDS011;55463;52.324;5.122;2023-04-15T13:08:59;5.05;;;1.80;;
67274;SDS011;55463;52.324;5.122;2023-04-15T13:11:25;2.92;;;1.77;;
67274;SDS011;55463;52.324;5.122;2023-04-15T13:13:51;2.53;;;1.55;;
67274;SDS011;55463;52.324;5.122;2023-04-15T13:16:17;3.15;;;1.75;;
67274;SDS011;55463;52.324;5.122;2023-04-15T13:18:43;4.70;;;1.65;;
67274;SDS011;55463;52.324;5.122;2023-04-15T13:21:09;2.47;;;1.55;;
67274;SDS011;55463;52.324;5.122;2023-04-15T13:23:35;3.00;;;1.60;;
67274;SDS011;55463;52.324;5.122;2023-04-15T13:26:01;3.70;;;2.10;;
67274;SDS011;55463;52.324;5.122;2023-04-15T13:28:26;3.65;;;1.50;;
67274;SDS011;55463;52.324;5.122;2023-04-15T13:30:51;4.45;;;1.60;;
67274;SDS011;55463;52.324;5.122;2023-04-15T13:33:18;4.65;;;1.80;;
67274;SDS011;55463;52.324;5.122;2023-04-15T13:35:43;2.38;;;1.90;;
67274;SDS011;55463;52.324;5.122;2023-04-15T13:38:08;5.57;;;2.28;;
67274;SDS011;55463;52.324;5.122;2023-04-15T13:40:34;7.10;;;1.83;;
67274;SDS011;55463;52.324;5.122;2023-04-15T13:42:59;6.43;;;2.10;;
67274;SDS011;55463;52.324;5.122;2023-04-15T13:45:26;4.20;;;1.85;;
67274;SDS011;55463;52.324;5.122;2023-04-15T13:47:51;3.95;;;1.73;;
67274;SDS011;55463;52.324;5.122;2023-04-15T13:50:17;6.03;;;2.05;;
67274;SDS011;55463;52.324;5.122;2023-04-15T13:52:42;2.55;;;1.70;;
67274;SDS011;55463;52.324;5.122;2023-04-15T13:55:08;4.32;;;1.60;;
67274;SDS011;55463;52.324;5.122;2023-04-15T13:57:33;3.65;;;1.60;;
67274;SDS011;55463;52.324;5.122;2023-04-15T13:59:59;7.40;;;1.60;;
67274;SDS011;55463;52.324;5.122;2023-04-15T14:02:25;3.67;;;1.60;;
67274;SDS011;55463;52.324;5.122;2023-04-15T14:04:50;5.50;;;1.90;;
67274;SDS011;55463;52.324;5.122;2023-04-15T14:07:15;5.50;;;2.13;;
67274;SDS011;55463;52.324;5.122;2023-04-15T14:09:42;3.53;;;1.50;;
67274;SDS011;55463;52.324;5.122;2023-04-15T14:12:07;5.55;;;1.80;;
67274;SDS011;55463;52.324;5.122;2023-04-15T14:14:34;4.05;;;1.50;;
67274;SDS011;55463;52.324;5.122;2023-04-15T14:16:59;5.22;;;1.83;;
67274;SDS011;55463;52.324;5.122;2023-04-15T14:19:24;4.47;;;1.50;;
67274;SDS011;55463;52.324;5.122;2023-04-15T14:21:50;6.75;;;1.65;;
67274;SDS011;55463;52.324;5.122;2023-04-15T14:24:15;4.75;;;1.73;;
67274;SDS011;55463;52.324;5.122;2023-04-15T14:26:41;2.30;;;1.50;;
67274;SDS011;55463;52.324;5.122;2023-04-15T14:29:08;5.13;;;1.40;;
67274;SDS011;55463;52.324;5.122;2023-04-15T14:31:34;6.75;;;1.85;;
67274;SDS011;55463;52.324;5.122;2023-04-15T14:33:59;8.18;;;1.75;;
67274;SDS011;55463;52.324;5.122;2023-04-15T14:36:25;6.10;;;2.20;;
67274;SDS011;55463;52.324;5.122;2023-04-15T14:38:51;6.47;;;1.80;;
67274;SDS011;55463;52.324;5.122;2023-04-15T14:41:16;5.45;;;1.55;;
67274;SDS011;55463;52.324;5.122;2023-04-15T14:43:41;6.30;;;1.45;;
67274;SDS011;55463;52.324;5.122;2023-04-15T14:46:07;7.40;;;1.60;;
67274;SDS011;55463;52.324;5.122;2023-04-15T14:48:33;6.03;;;1.98;;
67274;SDS011;55463;52.324;5.122;2023-04-15T14:50:58;12.13;;;2.08;;
67274;SDS011;55463;52.324;5.122;2023-04-15T14:53:23;4.00;;;1.60;;